Time;durP1;ratioP1;P1;durP2;ratioP2;P2;SDS_P1;SDS_P2;PMS_P1;PMS_P2;Temp;Humidity;BMP_temperature;BMP_pressure;BME280_temperature;BME280_humidity;BME280_pressure;Samples;Min_cycle;Max_cycle;Signal;HPM_P1;HPM_P2
2021/01/25 00:03:11;;;;;;;0.50;0.40;;;4.00;64.90;;;;;;10042512;28;20029;-69
2021/01/25 00:08:02;;;;;;;1.17;0.60;;;4.00;64.90;;;;;;10045547;28;20407;-64
2021/01/25 00:12:53;;;;;;;1.42;0.60;;;3.90;65.10;;;;;;10034193;28;20407;-69
2021/01/25 00:17:43;;;;;;;1.10;0.50;;;3.90;65.30;;;;;;10037626;28;20068;-68
2021/01/25 00:22:34;;;;;;;0.88;0.68;;;3.80;65.50;;;;;;10044054;28;20112;-66
2021/01/25 00:27:24;;;;;;;1.05;0.40;;;3.90;65.70;;;;;;10045356;28;20041;-65
2021/01/25 00:32:15;;;;;;;0.50;0.50;;;3.80;65.80;;;;;;10045498;28;20022;-67
2021/01/25 00:37:06;;;;;;;0.95;0.60;;;3.80;65.80;;;;;;10036214;28;20079;-65
2021/01/25 00:41:56;;;;;;;0.38;0.30;;;3.80;65.90;;;;;;10046299;28;20040;-65
2021/01/25 00:46:47;;;;;;;0.30;0.30;;;3.70;66.10;;;;;;10042409;28;20033;-66
2021/01/25 00:51:37;;;;;;;0.45;0.30;;;3.70;66.40;;;;;;10038812;28;20068;-66
2021/01/25 00:56:28;;;;;;;0.90;0.60;;;3.70;66.50;;;;;;10042593;28;20120;-63
2021/01/25 01:01:19;;;;;;;1.48;0.70;;;3.70;66.80;;;;;;10044563;28;20439;-63
2021/01/25 01:06:09;;;;;;;1.20;0.60;;;3.70;66.80;;;;;;10042831;28;20104;-67
2021/01/25 01:11:00;;;;;;;0.55;0.47;;;3.70;66.90;;;;;;10054437;28;20424;-65
2021/01/25 01:15:51;;;;;;;1.13;0.45;;;3.80;66.80;;;;;;10048050;28;20488;-63
2021/01/25 01:20:42;;;;;;;1.02;0.50;;;3.80;67.00;;;;;;10046588;28;20053;-64
2021/01/25 01:25:33;;;;;;;2.15;0.45;;;3.80;67.10;;;;;;10049664;28;20432;-65
2021/01/25 01:30:23;;;;;;;2.20;0.70;;;3.80;67.20;;;;;;10037696;28;20419;-64
2021/01/25 01:35:14;;;;;;;0.90;0.47;;;3.90;67.10;;;;;;10046362;28;20041;-65
2021/01/25 01:40:06;;;;;;;0.95;0.68;;;3.90;66.90;;;;;;10047463;28;20025;-65
2021/01/25 01:44:57;;;;;;;0.47;0.40;;;4.00;67.10;;;;;;10039683;28;20048;-63
2021/01/25 01:49:50;;;;;;;1.13;0.52;;;4.00;67.30;;;;;;10046825;28;20044;-63
2021/01/25 01:54:41;;;;;;;1.30;0.60;;;3.90;67.20;;;;;;10050030;28;20033;-64
2021/01/25 01:59:31;;;;;;;0.88;0.35;;;3.70;67.90;;;;;;10046991;28;20018;-63
2021/01/25 02:04:22;;;;;;;0.63;0.50;;;3.70;68.10;;;;;;10046827;28;20116;-63
2021/01/25 02:09:13;;;;;;;2.65;0.70;;;3.60;68.60;;;;;;10047723;28;20037;-62
2021/01/25 02:14:06;;;;;;;0.50;0.50;;;3.70;68.70;;;;;;10047198;28;20033;-63
2021/01/25 02:18:57;;;;;;;1.30;0.65;;;3.60;69.70;;;;;;10042377;28;20055;-65
2021/01/25 02:24:06;;;;;;;0.70;0.50;;;3.30;70.00;;;;;;10045805;28;20030;-63
2021/01/25 02:28:57;;;;;;;1.58;0.60;;;3.20;71.20;;;;;;10040173;28;20076;-63
2021/01/25 02:33:54;;;;;;;1.23;0.60;;;3.10;71.00;;;;;;10043994;28;20526;-63
2021/01/25 02:38:49;;;;;;;0.65;0.40;;;3.00;71.60;;;;;;10048612;28;20060;-63
2021/01/25 02:43:41;;;;;;;1.77;0.85;;;2.90;71.90;;;;;;10045649;28;20049;-62
2021/01/25 02:48:31;;;;;;;0.80;0.63;;;2.90;72.10;;;;;;10046529;28;20037;-63
2021/01/25 02:53:22;;;;;;;1.58;0.95;;;2.90;72.20;;;;;;10046162;28;20025;-63
2021/01/25 02:58:14;;;;;;;1.20;0.63;;;3.00;72.30;;;;;;10048225;28;20431;-62
2021/01/25 03:03:06;;;;;;;0.90;0.90;;;2.90;72.70;;;;;;10049060;28;20457;-62
2021/01/25 03:07:57;;;;;;;0.77;0.68;;;2.90;73.10;;;;;;10045312;28;20052;-62
2021/01/25 03:12:48;;;;;;;2.78;1.02;;;2.90;73.10;;;;;;10042301;28;20621;-62
2021/01/25 03:17:38;;;;;;;2.10;0.80;;;2.90;73.50;;;;;;10041581;28;20107;-61
2021/01/25 03:22:29;;;;;;;1.75;1.08;;;2.90;73.70;;;;;;10043129;28;20476;-62
2021/01/25 03:27:19;;;;;;;1.92;0.90;;;2.90;73.70;;;;;;10045322;28;20129;-62
2021/01/25 03:32:10;;;;;;;0.70;0.70;;;3.00;73.90;;;;;;10043091;28;20013;-62
2021/01/25 03:37:01;;;;;;;3.38;1.10;;;3.00;74.20;;;;;;10043720;28;20021;-62
2021/01/25 03:41:51;;;;;;;1.35;0.90;;;3.00;74.10;;;;;;10038272;28;20033;-61
2021/01/25 03:46:45;;;;;;;1.35;0.60;;;3.00;74.60;;;;;;10044654;28;20395;-62
2021/01/25 03:51:36;;;;;;;1.30;0.80;;;3.00;75.00;;;;;;10038493;28;20080;-60
2021/01/25 03:56:26;;;;;;;2.35;1.10;;;3.10;75.10;;;;;;10042451;28;20056;-62
2021/01/25 04:01:17;;;;;;;1.60;1.08;;;3.10;75.30;;;;;;10040541;28;20032;-62
2021/01/25 04:06:08;;;;;;;2.40;1.40;;;3.10;75.60;;;;;;10033406;28;20018;-62
2021/01/25 04:10:58;;;;;;;2.58;1.27;;;3.10;75.80;;;;;;10044304;28;20044;-62
2021/01/25 04:15:49;;;;;;;2.03;1.63;;;3.00;76.70;;;;;;10040975;28;20105;-62
2021/01/25 04:20:39;;;;;;;1.73;1.13;;;3.20;76.10;;;;;;10044350;28;20041;-62
2021/01/25 04:25:30;;;;;;;1.95;1.35;;;3.20;76.30;;;;;;10043121;28;20499;-61
2021/01/25 04:30:20;;;;;;;2.22;1.33;;;3.30;76.50;;;;;;10037654;28;20522;-61
2021/01/25 04:35:14;;;;;;;4.78;2.45;;;3.20;76.50;;;;;;10031248;28;20068;-60
2021/01/25 04:40:09;;;;;;;1.90;1.45;;;3.30;76.40;;;;;;10046046;28;20564;-61
2021/01/25 04:45:00;;;;;;;2.53;1.60;;;3.20;76.80;;;;;;10043705;28;20419;-62
2021/01/25 04:49:51;;;;;;;4.13;1.95;;;3.30;77.00;;;;;;10052354;28;20496;-62
2021/01/25 04:54:43;;;;;;;3.38;2.40;;;3.20;77.20;;;;;;10048428;28;20025;-61
2021/01/25 04:59:35;;;;;;;2.83;1.58;;;3.30;77.50;;;;;;10051289;28;20049;-59
2021/01/25 05:04:26;;;;;;;2.53;1.88;;;3.40;77.30;;;;;;10048475;28;20655;-61
2021/01/25 05:09:16;;;;;;;2.60;1.77;;;3.30;77.30;;;;;;10050843;28;20076;-60
2021/01/25 05:14:07;;;;;;;3.25;2.08;;;3.30;77.80;;;;;;10044888;28;20032;-62
2021/01/25 05:19:03;;;;;;;5.55;2.00;;;3.30;78.00;;;;;;10048144;28;20053;-61
2021/01/25 05:24:03;;;;;;;2.97;1.85;;;3.20;78.20;;;;;;10051730;28;20241;-61
2021/01/25 05:28:54;;;;;;;4.35;2.45;;;3.30;78.60;;;;;;10039308;28;20049;-60
2021/01/25 05:33:44;;;;;;;2.70;2.05;;;3.20;78.50;;;;;;10047618;28;20037;-61
2021/01/25 05:38:35;;;;;;;3.30;2.10;;;3.20;79.00;;;;;;10050527;28;20037;-61
2021/01/25 05:43:32;;;;;;;3.88;1.92;;;3.20;79.00;;;;;;10063593;28;20029;-60
2021/01/25 05:48:22;;;;;;;3.95;1.83;;;3.10;79.30;;;;;;10049877;28;20085;-61
2021/01/25 05:53:13;;;;;;;4.43;2.17;;;3.00;79.60;;;;;;10040191;28;20507;-61
2021/01/25 05:58:05;;;;;;;4.38;2.00;;;3.00;79.70;;;;;;10048985;28;20120;-60
2021/01/25 06:02:56;;;;;;;2.35;1.65;;;2.90;79.80;;;;;;10045569;28;20030;-61
2021/01/25 06:07:50;;;;;;;2.88;1.90;;;2.90;80.00;;;;;;10046307;28;20029;-61
2021/01/25 06:12:47;;;;;;;2.97;1.92;;;2.80;80.20;;;;;;10041378;28;20026;-60
2021/01/25 06:17:38;;;;;;;2.90;1.92;;;2.80;80.10;;;;;;10048232;28;20061;-61
2021/01/25 06:22:30;;;;;;;2.53;1.73;;;2.80;80.40;;;;;;10047938;28;20546;-61
2021/01/25 06:27:24;;;;;;;3.10;1.77;;;2.80;80.60;;;;;;10039845;28;20033;-61
2021/01/25 06:32:15;;;;;;;2.95;1.60;;;2.70;80.30;;;;;;10047548;28;20033;-61
2021/01/25 06:37:09;;;;;;;3.92;1.92;;;2.80;80.50;;;;;;10045968;28;20403;-60
2021/01/25 06:42:01;;;;;;;3.05;1.90;;;2.80;80.40;;;;;;10045345;28;20513;-60
2021/01/25 06:46:56;;;;;;;4.43;1.77;;;2.80;80.30;;;;;;10047196;28;20053;-60
2021/01/25 06:51:47;;;;;;;2.45;1.42;;;2.80;80.30;;;;;;10045963;28;20034;-61
2021/01/25 06:56:45;;;;;;;4.57;2.08;;;2.80;80.50;;;;;;10045174;28;20240;-61
2021/01/25 07:01:36;;;;;;;3.95;1.50;;;2.80;80.90;;;;;;10045562;28;20044;-59
2021/01/25 07:06:36;;;;;;;3.90;1.92;;;2.70;80.80;;;;;;10045767;28;20194;-60
2021/01/25 07:11:28;;;;;;;3.13;1.85;;;2.70;80.90;;;;;;10044862;28;20040;-62
2021/01/25 07:16:19;;;;;;;5.03;2.55;;;2.70;80.90;;;;;;10044475;28;20027;-59
2021/01/25 07:21:13;;;;;;;4.00;2.55;;;2.80;81.00;;;;;;10044681;28;20050;-61
2021/01/25 07:26:04;;;;;;;2.35;1.52;;;2.80;81.00;;;;;;10052952;28;20420;-59
2021/01/25 07:30:56;;;;;;;4.63;2.15;;;2.80;81.10;;;;;;10063164;28;20087;-61
2021/01/25 07:35:47;;;;;;;5.05;2.55;;;2.90;81.00;;;;;;10040013;28;20514;-60
2021/01/25 07:40:38;;;;;;;3.67;1.63;;;3.00;80.90;;;;;;10043725;28;20124;-59
2021/01/25 07:45:29;;;;;;;3.88;2.10;;;3.10;81.30;;;;;;10037080;28;20187;-59
2021/01/25 07:50:20;;;;;;;4.72;1.90;;;3.10;81.40;;;;;;10042381;28;20041;-60
2021/01/25 07:55:15;;;;;;;6.13;2.30;;;3.20;81.10;;;;;;10043832;28;20036;-59
2021/01/25 08:00:22;;;;;;;3.70;1.85;;;3.20;81.20;;;;;;10045566;28;20044;-60
2021/01/25 08:05:14;;;;;;;4.00;1.63;;;3.30;81.50;;;;;;10043680;28;20033;-59
2021/01/25 08:10:06;;;;;;;4.25;1.60;;;3.40;81.20;;;;;;10038526;28;20076;-61
2021/01/25 08:15:03;;;;;;;2.72;1.98;;;3.30;81.40;;;;;;10042667;28;20056;-60
2021/01/25 08:20:04;;;;;;;3.53;1.95;;;3.40;81.50;;;;;;10043802;28;20049;-61
2021/01/25 08:24:59;;;;;;;5.80;2.55;;;3.50;81.60;;;;;;10048708;28;20116;-61
2021/01/25 08:30:06;;;;;;;2.22;1.70;;;3.60;81.50;;;;;;10051274;28;20045;-59
2021/01/25 08:35:02;;;;;;;1.88;1.38;;;3.70;81.30;;;;;;10050625;28;20076;-59
2021/01/25 08:39:53;;;;;;;2.75;1.50;;;3.70;81.70;;;;;;10044850;28;20025;-59
2021/01/25 08:45:02;;;;;;;2.28;1.38;;;3.70;81.70;;;;;;10050735;28;20029;-59
2021/01/25 08:49:54;;;;;;;3.28;1.83;;;3.70;82.10;;;;;;10035176;28;20666;-60
2021/01/25 08:54:44;;;;;;;3.10;1.52;;;3.80;81.90;;;;;;10032001;28;20105;-61
2021/01/25 08:59:39;;;;;;;2.03;1.27;;;3.90;81.70;;;;;;10052819;28;20053;-60
2021/01/25 09:04:30;;;;;;;2.05;1.35;;;4.00;81.90;;;;;;10042321;28;20068;-60
2021/01/25 09:09:21;;;;;;;2.58;1.48;;;3.90;81.90;;;;;;10042618;28;20071;-60
2021/01/25 09:14:12;;;;;;;2.25;1.58;;;3.90;82.40;;;;;;10043212;28;20121;-60
2021/01/25 09:19:03;;;;;;;2.88;1.40;;;3.90;82.80;;;;;;10035637;28;20050;-64
2021/01/25 09:23:53;;;;;;;2.50;1.70;;;3.90;82.50;;;;;;10036417;28;20524;-59
2021/01/25 09:28:44;;;;;;;6.65;1.85;;;4.10;82.10;;;;;;10039008;28;20029;-61
2021/01/25 09:33:34;;;;;;;2.38;1.80;;;4.10;82.10;;;;;;10055432;28;20519;-60
2021/01/25 09:38:25;;;;;;;2.72;1.75;;;4.20;82.10;;;;;;10039283;28;20125;-62
2021/01/25 09:43:16;;;;;;;3.13;1.77;;;4.30;81.80;;;;;;10033311;28;20025;-61
2021/01/25 09:48:07;;;;;;;2.40;1.75;;;4.20;81.90;;;;;;10032430;28;20482;-57
2021/01/25 09:52:57;;;;;;;2.28;1.48;;;4.30;81.90;;;;;;10028236;28;20037;-59
2021/01/25 09:57:48;;;;;;;2.22;1.42;;;4.20;82.10;;;;;;10042334;28;20033;-59
2021/01/25 10:02:39;;;;;;;1.63;1.27;;;4.30;81.90;;;;;;10038133;28;20426;-59
2021/01/25 10:07:34;;;;;;;6.55;2.00;;;4.30;81.90;;;;;;10031558;28;20056;-60
2021/01/25 10:12:25;;;;;;;3.27;1.83;;;4.30;82.10;;;;;;10051659;28;20053;-58
2021/01/25 10:17:16;;;;;;;2.13;1.20;;;4.20;82.20;;;;;;10048703;28;20443;-61
2021/01/25 10:22:07;;;;;;;3.25;1.33;;;4.00;82.50;;;;;;10039723;28;20054;-59
2021/01/25 10:26:58;;;;;;;2.35;1.23;;;3.80;82.70;;;;;;10038797;28;20353;-59
2021/01/25 10:31:48;;;;;;;2.50;1.17;;;3.80;83.00;;;;;;10044132;28;20033;-58
2021/01/25 10:36:39;;;;;;;0.80;0.80;;;3.90;82.90;;;;;;10050288;28;20018;-61
2021/01/25 10:41:29;;;;;;;4.25;1.33;;;3.90;82.70;;;;;;10028932;28;20268;-59
2021/01/25 10:46:20;;;;;;;1.80;1.48;;;4.00;82.30;;;;;;10032961;28;20033;-60
2021/01/25 10:51:11;;;;;;;3.95;2.28;;;4.10;82.20;;;;;;10043794;28;20638;-59
2021/01/25 10:56:02;;;;;;;1.55;0.98;;;4.20;82.30;;;;;;10036853;28;20108;-60
2021/01/25 11:00:52;;;;;;;3.58;1.83;;;4.20;82.30;;;;;;10035818;28;20092;-60
2021/01/25 11:05:43;;;;;;;2.65;1.60;;;4.40;82.00;;;;;;10043368;28;20036;-60
2021/01/25 11:10:34;;;;;;;3.40;1.80;;;4.50;81.90;;;;;;10047270;28;20431;-61
2021/01/25 11:15:25;;;;;;;3.33;1.77;;;4.50;81.90;;;;;;10043301;28;20100;-59
2021/01/25 11:20:16;;;;;;;3.50;1.20;;;4.60;81.90;;;;;;10045873;28;20037;-60
2021/01/25 11:25:08;;;;;;;2.47;1.50;;;4.60;81.70;;;;;;10038095;28;20030;-59
2021/01/25 11:29:58;;;;;;;1.98;1.67;;;4.50;82.00;;;;;;10040787;28;20045;-60
2021/01/25 11:34:51;;;;;;;1.75;1.08;;;4.60;81.50;;;;;;10030921;28;20045;-60
2021/01/25 11:39:42;;;;;;;1.50;0.90;;;4.70;81.40;;;;;;10032110;28;20467;-60
2021/01/25 11:44:33;;;;;;;1.63;0.93;;;4.70;81.20;;;;;;10032799;28;20087;-61
2021/01/25 11:49:26;;;;;;;0.60;0.60;;;4.70;80.90;;;;;;10040906;28;20046;-61
2021/01/25 11:54:18;;;;;;;0.75;0.60;;;4.70;80.60;;;;;;10045482;28;20022;-60
2021/01/25 11:59:09;;;;;;;1.63;1.25;;;4.80;80.80;;;;;;10038961;28;20132;-60
2021/01/25 12:03:59;;;;;;;1.63;0.90;;;4.90;80.60;;;;;;10043541;28;20078;-61
2021/01/25 12:08:50;;;;;;;1.58;1.08;;;4.90;80.60;;;;;;10043870;28;20037;-60
2021/01/25 12:13:41;;;;;;;0.77;0.55;;;4.80;80.60;;;;;;10041002;28;20025;-59
2021/01/25 12:18:32;;;;;;;1.25;0.63;;;4.60;80.30;;;;;;10044039;28;20057;-60
2021/01/25 12:23:23;;;;;;;2.70;0.93;;;4.60;80.20;;;;;;10031345;28;20034;-60
2021/01/25 12:28:13;;;;;;;1.48;0.73;;;4.70;80.00;;;;;;10026599;28;20444;-59
2021/01/25 12:33:04;;;;;;;1.10;0.60;;;4.80;79.60;;;;;;10040177;28;20121;-60
2021/01/25 12:37:59;;;;;;;1.00;0.65;;;5.00;79.30;;;;;;10039029;28;20505;-60
2021/01/25 12:42:50;;;;;;;2.50;0.80;;;4.90;79.20;;;;;;10041420;28;20025;-59
2021/01/25 12:47:41;;;;;;;2.65;1.35;;;4.90;79.40;;;;;;10040459;28;20514;-60
2021/01/25 12:52:33;;;;;;;1.02;0.73;;;5.00;79.30;;;;;;10033078;28;20754;-60
2021/01/25 12:57:24;;;;;;;1.13;1.02;;;4.90;79.10;;;;;;10022794;28;20028;-60
2021/01/25 13:02:14;;;;;;;0.75;0.60;;;4.90;79.20;;;;;;10027576;28;20452;-61
2021/01/25 13:07:05;;;;;;;1.88;0.80;;;4.90;78.70;;;;;;10031220;28;20037;-62
2021/01/25 13:11:55;;;;;;;1.10;0.80;;;5.10;78.60;;;;;;10033432;28;20029;-61
2021/01/25 13:16:46;;;;;;;2.45;0.70;;;5.20;78.10;;;;;;10048162;28;20025;-60
2021/01/25 13:21:36;;;;;;;1.27;0.90;;;5.50;78.10;;;;;;10049167;28;20128;-60
2021/01/25 13:26:27;;;;;;;1.05;0.57;;;5.50;77.20;;;;;;10050984;28;20127;-59
2021/01/25 13:31:17;;;;;;;0.95;0.52;;;5.50;77.40;;;;;;10051012;28;20033;-61
2021/01/25 13:36:08;;;;;;;1.00;0.70;;;5.70;76.70;;;;;;10048748;28;20025;-59
2021/01/25 13:40:59;;;;;;;0.95;0.60;;;5.90;76.30;;;;;;10049106;28;20057;-59
2021/01/25 13:45:50;;;;;;;0.82;0.73;;;6.00;75.90;;;;;;10050367;28;20021;-59
2021/01/25 13:50:42;;;;;;;1.40;0.82;;;6.10;75.70;;;;;;10048156;28;20156;-60
2021/01/25 13:55:33;;;;;;;1.33;0.68;;;6.10;75.20;;;;;;10046495;28;20688;-60
2021/01/25 14:00:27;;;;;;;1.13;0.50;;;6.00;75.20;;;;;;10049899;28;20134;-60
2021/01/25 14:05:18;;;;;;;0.73;0.60;;;5.90;74.90;;;;;;10046421;28;20037;-61
2021/01/25 14:10:09;;;;;;;2.28;0.70;;;5.80;74.90;;;;;;10047893;28;20069;-61
2021/01/25 14:15:00;;;;;;;0.88;0.73;;;5.80;74.60;;;;;;10046509;28;20400;-61
2021/01/25 14:19:50;;;;;;;0.73;0.40;;;5.50;74.70;;;;;;10048664;28;20041;-60
2021/01/25 14:24:41;;;;;;;2.90;1.00;;;5.40;74.60;;;;;;10047719;28;20423;-59
2021/01/25 14:29:32;;;;;;;0.77;0.55;;;5.30;74.60;;;;;;10047244;28;20048;-60
2021/01/25 14:34:22;;;;;;;0.93;0.70;;;5.20;74.80;;;;;;10049911;28;20025;-59
2021/01/25 14:39:13;;;;;;;0.93;0.68;;;5.20;74.30;;;;;;10046064;28;20484;-60
2021/01/25 14:44:04;;;;;;;2.88;0.60;;;5.20;74.30;;;;;;10048126;28;20037;-61
2021/01/25 14:48:55;;;;;;;1.35;0.73;;;5.10;74.10;;;;;;10044245;28;20076;-59
2021/01/25 14:53:46;;;;;;;2.47;0.93;;;4.80;74.40;;;;;;10049030;28;20049;-60
2021/01/25 14:58:36;;;;;;;1.75;0.60;;;4.60;75.10;;;;;;10046790;28;20032;-60
2021/01/25 15:03:27;;;;;;;0.73;0.50;;;4.50;75.70;;;;;;10057659;28;20268;-61
2021/01/25 15:08:18;;;;;;;0.98;0.65;;;4.40;76.00;;;;;;10042426;28;20060;-61
2021/01/25 15:13:09;;;;;;;2.50;1.30;;;4.40;76.30;;;;;;10043111;28;20034;-59
2021/01/25 15:17:59;;;;;;;0.90;0.70;;;4.50;76.30;;;;;;10043799;28;20053;-59
2021/01/25 15:22:50;;;;;;;1.95;0.93;;;4.50;76.10;;;;;;10034678;28;20026;-60
2021/01/25 15:27:41;;;;;;;0.70;0.70;;;4.50;76.50;;;;;;10044290;28;20045;-59
2021/01/25 15:32:32;;;;;;;0.90;0.80;;;4.50;76.80;;;;;;10042813;28;20041;-59
2021/01/25 15:37:22;;;;;;;1.65;0.80;;;4.40;77.30;;;;;;10043452;28;20428;-61
2021/01/25 15:42:13;;;;;;;1.77;0.70;;;4.30;77.30;;;;;;10047163;28;20443;-59
2021/01/25 15:47:04;;;;;;;0.98;0.73;;;4.30;77.60;;;;;;10044130;28;20128;-59
2021/01/25 15:51:55;;;;;;;1.58;1.20;;;4.20;77.50;;;;;;10044305;28;20041;-60
2021/01/25 15:56:45;;;;;;;1.33;0.90;;;4.20;77.80;;;;;;10040269;28;20033;-61
2021/01/25 16:01:36;;;;;;;3.45;1.55;;;4.20;77.90;;;;;;10040042;28;20040;-58
2021/01/25 16:06:27;;;;;;;2.60;1.42;;;4.10;78.10;;;;;;10040882;28;20025;-60
2021/01/25 16:11:21;;;;;;;2.88;1.60;;;4.00;78.40;;;;;;10043724;28;20042;-60
2021/01/25 16:16:11;;;;;;;2.38;1.75;;;3.90;78.60;;;;;;10040232;28;20029;-60
2021/01/25 16:21:04;;;;;;;2.10;1.25;;;3.80;78.80;;;;;;10040710;28;20049;-60
2021/01/25 16:25:55;;;;;;;3.50;1.48;;;3.70;78.80;;;;;;10042675;28;20030;-60
2021/01/25 16:30:46;;;;;;;2.22;1.40;;;3.60;79.00;;;;;;10042079;28;20045;-59
2021/01/25 16:35:36;;;;;;;3.53;1.80;;;3.60;78.90;;;;;;10040779;28;20416;-61
2021/01/25 16:40:27;;;;;;;3.40;1.58;;;3.60;78.70;;;;;;10035135;28;20033;-59
2021/01/25 16:45:18;;;;;;;2.47;1.42;;;3.60;78.80;;;;;;10051851;28;20021;-61
2021/01/25 16:50:09;;;;;;;3.80;1.63;;;3.70;78.80;;;;;;10051890;28;20095;-60
2021/01/25 16:55:00;;;;;;;3.67;2.05;;;3.70;78.80;;;;;;10049559;28;22804;-61
2021/01/25 16:59:50;;;;;;;9.32;3.42;;;3.70;79.00;;;;;;10045708;28;20022;-59
2021/01/25 17:04:41;;;;;;;7.68;4.10;;;3.70;78.80;;;;;;10042250;28;20493;-61
2021/01/25 17:09:35;;;;;;;16.45;6.72;;;3.70;78.90;;;;;;10045413;28;20072;-60
2021/01/25 17:14:26;;;;;;;11.25;4.85;;;3.70;79.00;;;;;;10042731;28;20493;-60
2021/01/25 17:19:17;;;;;;;4.68;2.25;;;3.70;79.10;;;;;;10045717;28;20045;-61
2021/01/25 17:24:08;;;;;;;5.95;2.85;;;3.70;79.00;;;;;;10033739;28;20022;-59
2021/01/25 17:28:59;;;;;;;7.20;2.72;;;3.70;79.10;;;;;;10042325;28;20060;-61
2021/01/25 17:33:50;;;;;;;3.95;2.97;;;3.80;79.00;;;;;;10038053;28;20029;-62
2021/01/25 17:38:40;;;;;;;6.30;4.68;;;3.70;79.00;;;;;;10032776;28;20523;-61
2021/01/25 17:43:32;;;;;;;3.80;2.85;;;3.70;78.80;;;;;;10051439;28;20033;-61
2021/01/25 17:48:24;;;;;;;5.97;3.45;;;3.70;79.00;;;;;;10043752;28;20450;-61
2021/01/25 17:53:16;;;;;;;7.10;3.22;;;3.70;78.80;;;;;;10045319;28;20037;-60
2021/01/25 17:58:07;;;;;;;5.07;3.95;;;3.70;79.10;;;;;;10048098;28;20474;-60
2021/01/25 18:02:57;;;;;;;6.80;3.13;;;3.70;79.10;;;;;;10047711;28;20034;-60
2021/01/25 18:07:48;;;;;;;5.50;3.08;;;3.80;79.00;;;;;;10046281;28;20043;-61
2021/01/25 18:12:39;;;;;;;5.70;2.80;;;3.80;79.00;;;;;;10046311;28;20025;-60
2021/01/25 18:17:30;;;;;;;9.13;4.47;;;3.80;79.10;;;;;;10045167;28;20381;-59
2021/01/25 18:22:20;;;;;;;4.13;2.75;;;3.80;79.10;;;;;;10038809;28;20033;-60
2021/01/25 18:27:11;;;;;;;5.38;3.03;;;3.80;78.90;;;;;;10043758;28;20025;-58
2021/01/25 18:32:01;;;;;;;10.40;5.97;;;3.90;78.70;;;;;;10042798;28;20046;-61
2021/01/25 18:36:52;;;;;;;7.20;2.95;;;3.90;78.70;;;;;;10048168;28;20037;-59
2021/01/25 18:41:43;;;;;;;4.78;3.05;;;4.00;79.20;;;;;;10050114;28;20036;-61
2021/01/25 18:46:34;;;;;;;4.40;3.03;;;4.00;78.40;;;;;;10036285;28;20121;-60
2021/01/25 18:51:24;;;;;;;6.60;2.90;;;3.90;78.70;;;;;;10046002;28;20041;-61
2021/01/25 18:56:15;;;;;;;6.45;3.75;;;3.90;78.90;;;;;;10048198;28;20029;-61
2021/01/25 19:01:06;;;;;;;10.18;4.28;;;3.90;78.70;;;;;;10042538;28;20167;-60
2021/01/25 19:05:57;;;;;;;6.30;3.13;;;4.00;78.40;;;;;;10043376;28;20042;-61
2021/01/25 19:10:49;;;;;;;9.45;4.03;;;3.90;78.50;;;;;;10042325;28;20041;-60
2021/01/25 19:15:40;;;;;;;5.15;3.22;;;3.90;78.50;;;;;;10045556;28;20029;-60
2021/01/25 19:20:33;;;;;;;4.72;3.40;;;3.90;78.60;;;;;;10032050;28;20304;-62
2021/01/25 19:25:26;;;;;;;5.78;4.18;;;3.90;78.60;;;;;;10039926;28;20116;-61
2021/01/25 19:30:18;;;;;;;6.60;3.28;;;4.00;78.40;;;;;;10045725;28;20163;-61
2021/01/25 19:35:10;;;;;;;5.05;2.60;;;3.90;78.30;;;;;;10047400;28;20100;-61
2021/01/25 19:40:02;;;;;;;4.30;2.95;;;3.80;78.60;;;;;;9956926;28;20037;-62
2021/01/25 19:44:53;;;;;;;5.10;2.92;;;3.90;78.70;;;;;;9965421;28;20798;-64
2021/01/25 19:49:44;;;;;;;4.88;3.28;;;3.90;78.40;;;;;;9962899;28;20350;-62
2021/01/25 19:54:35;;;;;;;7.13;2.90;;;3.80;78.50;;;;;;9959286;28;20127;-61
2021/01/25 19:59:26;;;;;;;3.60;2.30;;;3.80;78.70;;;;;;9962721;28;20029;-59
2021/01/25 20:04:16;;;;;;;5.00;2.47;;;3.80;78.60;;;;;;9962572;28;20117;-61
2021/01/25 20:09:07;;;;;;;6.22;3.95;;;3.80;78.70;;;;;;9962696;28;20049;-58
2021/01/25 20:13:57;;;;;;;6.60;3.13;;;3.80;78.60;;;;;;9964756;28;20033;-62
2021/01/25 20:18:48;;;;;;;6.40;2.92;;;3.80;78.60;;;;;;9946911;28;20199;-62
2021/01/25 20:23:41;;;;;;;6.30;3.17;;;3.70;78.80;;;;;;9965947;28;20649;-62
2021/01/25 20:28:32;;;;;;;5.80;2.90;;;3.70;78.80;;;;;;9966112;28;20069;-61
2021/01/25 20:33:49;;;;;;;5.75;3.17;;;3.70;78.80;;;;;;9965567;28;20080;-61
2021/01/25 20:38:40;;;;;;;6.07;3.05;;;3.70;78.60;;;;;;9966977;28;21458;-60
2021/01/25 20:43:31;;;;;;;7.07;4.20;;;3.70;78.60;;;;;;9966867;28;20034;-61
2021/01/25 20:48:24;;;;;;;6.63;3.70;;;3.70;78.50;;;;;;9949098;28;20103;-65
2021/01/25 20:53:18;;;;;;;6.70;3.67;;;3.70;78.40;;;;;;9964981;28;20017;-61
2021/01/25 20:58:09;;;;;;;5.38;3.40;;;3.70;78.70;;;;;;9964958;28;20717;-64
2021/01/25 21:02:59;;;;;;;6.07;3.58;;;3.60;78.70;;;;;;9963755;28;20041;-62
2021/01/25 21:07:51;;;;;;;9.52;4.43;;;3.50;78.70;;;;;;9962046;28;20045;-62
2021/01/25 21:12:42;;;;;;;7.38;2.72;;;3.60;78.60;;;;;;9960634;28;20037;-58
2021/01/25 21:17:32;;;;;;;7.30;3.50;;;3.50;78.30;;;;;;9965154;28;20046;-60
2021/01/25 21:22:23;;;;;;;6.45;3.08;;;3.40;78.40;;;;;;9965849;28;20041;-60
2021/01/25 21:27:14;;;;;;;7.43;4.30;;;3.20;78.40;;;;;;9965965;28;20087;-60
2021/01/25 21:32:05;;;;;;;7.97;4.47;;;3.20;78.30;;;;;;9970988;28;20034;-61
2021/01/25 21:36:55;;;;;;;8.77;4.13;;;3.10;78.30;;;;;;9967744;28;20041;-62
2021/01/25 21:41:46;;;;;;;7.63;3.97;;;3.00;78.20;;;;;;9968458;28;20038;-60
2021/01/25 21:46:37;;;;;;;7.47;4.15;;;3.00;78.10;;;;;;9967083;28;21124;-61
2021/01/25 21:51:27;;;;;;;8.35;3.78;;;2.90;78.10;;;;;;9967355;28;20041;-62
2021/01/25 21:56:18;;;;;;;8.65;4.60;;;2.90;78.10;;;;;;9971343;28;20095;-60
2021/01/25 22:01:09;;;;;;;8.02;3.13;;;2.80;78.20;;;;;;9971502;28;20199;-60
2021/01/25 22:05:59;;;;;;;10.90;4.75;;;2.80;78.10;;;;;;9970564;28;20727;-62
2021/01/25 22:10:50;;;;;;;7.63;3.33;;;2.80;78.00;;;;;;9969429;28;20115;-60
2021/01/25 22:15:43;;;;;;;6.50;3.42;;;2.80;78.00;;;;;;9969494;28;20029;-60
2021/01/25 22:20:34;;;;;;;13.75;4.65;;;2.70;77.90;;;;;;9968119;28;20049;-59
2021/01/25 22:25:28;;;;;;;9.90;4.25;;;2.70;78.00;;;;;;9970471;28;20060;-60
2021/01/25 22:30:21;;;;;;;8.68;3.95;;;2.70;78.10;;;;;;9984467;28;20052;-60
2021/01/25 22:35:14;;;;;;;8.75;5.10;;;2.70;77.90;;;;;;9969673;28;20038;-59
2021/01/25 22:40:06;;;;;;;7.72;4.20;;;2.60;77.90;;;;;;9968729;28;20041;-59
2021/01/25 22:45:00;;;;;;;11.85;4.68;;;2.60;78.00;;;;;;9967454;28;20099;-61
2021/01/25 22:49:51;;;;;;;11.25;4.18;;;2.50;78.10;;;;;;9968592;28;20105;-59
2021/01/25 22:54:42;;;;;;;7.18;4.57;;;2.50;78.90;;;;;;9966595;28;20095;-61
2021/01/25 22:59:34;;;;;;;11.10;4.70;;;2.60;78.40;;;;;;9967980;28;20103;-60
2021/01/25 23:04:25;;;;;;;12.32;4.75;;;2.60;78.10;;;;;;9970119;28;20866;-60
2021/01/25 23:09:16;;;;;;;8.75;4.25;;;2.60;78.00;;;;;;9966599;28;20049;-61
2021/01/25 23:14:06;;;;;;;9.95;5.18;;;2.70;78.70;;;;;;9966266;28;20090;-59
2021/01/25 23:18:57;;;;;;;9.02;3.80;;;2.70;77.60;;;;;;9967884;28;20664;-60
2021/01/25 23:23:48;;;;;;;9.45;3.92;;;2.60;77.80;;;;;;9967525;28;20041;-59
2021/01/25 23:28:39;;;;;;;8.10;4.07;;;2.50;77.90;;;;;;9965595;28;20040;-62
2021/01/25 23:33:30;;;;;;;6.65;3.38;;;2.50;78.00;;;;;;9966451;28;20133;-59
2021/01/25 23:38:22;;;;;;;9.15;4.47;;;2.50;78.00;;;;;;9966674;28;20030;-59
2021/01/25 23:43:27;;;;;;;7.35;3.95;;;2.50;77.80;;;;;;9963714;28;20083;-60
2021/01/25 23:48:17;;;;;;;7.53;3.90;;;2.60;77.60;;;;;;9961798;28;20639;-61
2021/01/25 23:53:08;;;;;;;7.30;3.80;;;2.50;77.70;;;;;;9965429;28;20052;-60
2021/01/25 23:57:58;;;;;;;7.95;3.90;;;2.50;78.30;;;;;;9963561;28;20041;-60
